sensor_id;sensor_type;location;lat;lon;timestamp;P1;durP1;ratioP1;P2;durP2;ratioP2
23169;SDS011;11753;43.144;24.714;2023-07-20T00:00:51;11.25;;;2.17;;
23169;SDS011;11753;43.144;24.714;2023-07-20T00:01:55;6.57;;;1.98;;
23169;SDS011;11753;43.144;24.714;2023-07-20T00:03:09;10.10;;;2.40;;
23169;SDS011;11753;43.144;24.714;2023-07-20T00:04:13;12.35;;;2.42;;
23169;SDS011;11753;43.144;24.714;2023-07-20T00:05:14;8.95;;;1.90;;
23169;SDS011;11753;43.144;24.714;2023-07-20T00:06:14;8.15;;;2.10;;
23169;SDS011;11753;43.144;24.714;2023-07-20T00:07:15;6.15;;;2.17;;
23169;SDS011;11753;43.144;24.714;2023-07-20T00:08:16;8.98;;;2.00;;
23169;SDS011;11753;43.144;24.714;2023-07-20T00:09:18;6.00;;;1.73;;
23169;SDS011;11753;43.144;24.714;2023-07-20T00:10:18;8.55;;;1.83;;
23169;SDS011;11753;43.144;24.714;2023-07-20T00:11:19;6.85;;;2.05;;
23169;SDS011;11753;43.144;24.714;2023-07-20T00:12:20;9.88;;;2.53;;
23169;SDS011;11753;43.144;24.714;2023-07-20T00:13:20;14.10;;;2.58;;
23169;SDS011;11753;43.144;24.714;2023-07-20T00:14:21;7.28;;;1.85;;
23169;SDS011;11753;43.144;24.714;2023-07-20T00:15:22;5.25;;;1.75;;
23169;SDS011;11753;43.144;24.714;2023-07-20T00:16:22;11.10;;;2.35;;
23169;SDS011;11753;43.144;24.714;2023-07-20T00:17:23;7.00;;;2.35;;
23169;SDS011;11753;43.144;24.714;2023-07-20T00:18:23;8.07;;;1.92;;
23169;SDS011;11753;43.144;24.714;2023-07-20T00:19:25;11.10;;;2.30;;
23169;SDS011;11753;43.144;24.714;2023-07-20T00:20:29;7.13;;;2.40;;
23169;SDS011;11753;43.144;24.714;2023-07-20T00:21:29;5.72;;;2.10;;
23169;SDS011;11753;43.144;24.714;2023-07-20T00:22:30;10.00;;;2.03;;
23169;SDS011;11753;43.144;24.714;2023-07-20T00:23:31;7.03;;;2.15;;
23169;SDS011;11753;43.144;24.714;2023-07-20T00:24:31;8.93;;;2.00;;
23169;SDS011;11753;43.144;24.714;2023-07-20T00:25:32;7.90;;;2.45;;
23169;SDS011;11753;43.144;24.714;2023-07-20T00:26:36;6.38;;;1.80;;
23169;SDS011;11753;43.144;24.714;2023-07-20T00:27:37;5.43;;;2.03;;
23169;SDS011;11753;43.144;24.714;2023-07-20T00:28:38;7.15;;;2.22;;
23169;SDS011;11753;43.144;24.714;2023-07-20T00:29:38;12.38;;;2.35;;
23169;SDS011;11753;43.144;24.714;2023-07-20T00:30:39;5.68;;;1.95;;
23169;SDS011;11753;43.144;24.714;2023-07-20T00:31:40;7.90;;;2.28;;
23169;SDS011;11753;43.144;24.714;2023-07-20T00:32:43;8.88;;;2.58;;
23169;SDS011;11753;43.144;24.714;2023-07-20T00:33:44;7.97;;;1.98;;
23169;SDS011;11753;43.144;24.714;2023-07-20T00:34:45;7.03;;;2.17;;
23169;SDS011;11753;43.144;24.714;2023-07-20T00:35:46;9.82;;;2.25;;
23169;SDS011;11753;43.144;24.714;2023-07-20T00:36:47;9.23;;;2.47;;
23169;SDS011;11753;43.144;24.714;2023-07-20T00:37:50;5.82;;;2.08;;
23169;SDS011;11753;43.144;24.714;2023-07-20T00:38:51;7.43;;;2.17;;
23169;SDS011;11753;43.144;24.714;2023-07-20T00:39:55;8.60;;;2.35;;
23169;SDS011;11753;43.144;24.714;2023-07-20T00:40:56;7.75;;;2.25;;
23169;SDS011;11753;43.144;24.714;2023-07-20T00:41:57;9.25;;;2.35;;
23169;SDS011;11753;43.144;24.714;2023-07-20T00:43:01;7.45;;;2.33;;
23169;SDS011;11753;43.144;24.714;2023-07-20T00:44:02;9.23;;;2.10;;
23169;SDS011;11753;43.144;24.714;2023-07-20T00:45:03;9.25;;;2.30;;
23169;SDS011;11753;43.144;24.714;2023-07-20T00:46:05;10.77;;;2.80;;
23169;SDS011;11753;43.144;24.714;2023-07-20T00:47:09;8.93;;;2.33;;
23169;SDS011;11753;43.144;24.714;2023-07-20T00:48:13;10.07;;;2.60;;
23169;SDS011;11753;43.144;24.714;2023-07-20T00:49:17;9.77;;;2.33;;
23169;SDS011;11753;43.144;24.714;2023-07-20T00:50:21;10.65;;;2.72;;
23169;SDS011;11753;43.144;24.714;2023-07-20T00:51:24;12.38;;;3.20;;
23169;SDS011;11753;43.144;24.714;2023-07-20T00:52:28;7.50;;;2.20;;
23169;SDS011;11753;43.144;24.714;2023-07-20T00:53:33;6.80;;;2.22;;
23169;SDS011;11753;43.144;24.714;2023-07-20T00:54:37;7.72;;;2.60;;
23169;SDS011;11753;43.144;24.714;2023-07-20T00:55:38;7.88;;;2.53;;
23169;SDS011;11753;43.144;24.714;2023-07-20T00:56:40;8.10;;;2.33;;
23169;SDS011;11753;43.144;24.714;2023-07-20T00:57:41;7.38;;;2.88;;
23169;SDS011;11753;43.144;24.714;2023-07-20T00:58:42;9.35;;;2.75;;
23169;SDS011;11753;43.144;24.714;2023-07-20T00:59:43;6.85;;;2.45;;
23169;SDS011;11753;43.144;24.714;2023-07-20T01:00:45;5.65;;;2.35;;
23169;SDS011;11753;43.144;24.714;2023-07-20T01:01:47;8.50;;;2.78;;
23169;SDS011;11753;43.144;24.714;2023-07-20T01:02:48;6.45;;;2.60;;
23169;SDS011;11753;43.144;24.714;2023-07-20T01:03:49;10.07;;;2.88;;
23169;SDS011;11753;43.144;24.714;2023-07-20T01:04:50;12.35;;;2.72;;
23169;SDS011;11753;43.144;24.714;2023-07-20T01:06:10;11.13;;;2.95;;
23169;SDS011;11753;43.144;24.714;2023-07-20T01:09:14;10.23;;;3.05;;
23169;SDS011;11753;43.144;24.714;2023-07-20T01:10:20;7.75;;;3.08;;
23169;SDS011;11753;43.144;24.714;2023-07-20T01:13:08;10.15;;;3.00;;
23169;SDS011;11753;43.144;24.714;2023-07-20T01:14:11;8.70;;;2.72;;
23169;SDS011;11753;43.144;24.714;2023-07-20T01:15:12;5.80;;;2.60;;
23169;SDS011;11753;43.144;24.714;2023-07-20T01:16:13;10.00;;;3.35;;
23169;SDS011;11753;43.144;24.714;2023-07-20T01:17:14;9.00;;;2.78;;
23169;SDS011;11753;43.144;24.714;2023-07-20T01:18:14;12.57;;;2.92;;
23169;SDS011;11753;43.144;24.714;2023-07-20T01:19:15;7.93;;;2.97;;
23169;SDS011;11753;43.144;24.714;2023-07-20T01:20:16;8.63;;;3.10;;
23169;SDS011;11753;43.144;24.714;2023-07-20T01:27:26;8.65;;;3.15;;
23169;SDS011;11753;43.144;24.714;2023-07-20T01:31:30;5.95;;;3.10;;
23169;SDS011;11753;43.144;24.714;2023-07-20T01:32:32;11.45;;;3.00;;
23169;SDS011;11753;43.144;24.714;2023-07-20T01:33:35;9.35;;;2.78;;
23169;SDS011;11753;43.144;24.714;2023-07-20T01:34:37;6.78;;;2.55;;
23169;SDS011;11753;43.144;24.714;2023-07-20T01:35:39;6.43;;;2.60;;
23169;SDS011;11753;43.144;24.714;2023-07-20T01:36:43;6.47;;;2.70;;
23169;SDS011;11753;43.144;24.714;2023-07-20T01:37:45;7.93;;;2.95;;
23169;SDS011;11753;43.144;24.714;2023-07-20T01:38:47;8.68;;;3.33;;
23169;SDS011;11753;43.144;24.714;2023-07-20T01:39:48;10.00;;;3.05;;
23169;SDS011;11753;43.144;24.714;2023-07-20T01:40:50;8.10;;;2.90;;
23169;SDS011;11753;43.144;24.714;2023-07-20T01:41:51;9.30;;;2.78;;
23169;SDS011;11753;43.144;24.714;2023-07-20T01:42:53;6.82;;;2.95;;
23169;SDS011;11753;43.144;24.714;2023-07-20T01:43:57;10.68;;;3.20;;
23169;SDS011;11753;43.144;24.714;2023-07-20T01:45:01;9.30;;;2.55;;
23169;SDS011;11753;43.144;24.714;2023-07-20T01:46:02;6.07;;;2.50;;
23169;SDS011;11753;43.144;24.714;2023-07-20T01:47:02;7.28;;;2.33;;
23169;SDS011;11753;43.144;24.714;2023-07-20T01:48:04;10.43;;;3.05;;
23169;SDS011;11753;43.144;24.714;2023-07-20T01:49:05;11.18;;;3.28;;
23169;SDS011;11753;43.144;24.714;2023-07-20T01:50:06;8.68;;;3.00;;
23169;SDS011;11753;43.144;24.714;2023-07-20T01:51:07;5.72;;;2.60;;
23169;SDS011;11753;43.144;24.714;2023-07-20T01:52:08;7.05;;;3.05;;
23169;SDS011;11753;43.144;24.714;2023-07-20T01:53:09;8.45;;;2.92;;
23169;SDS011;11753;43.144;24.714;2023-07-20T01:54:09;8.68;;;2.85;;
23169;SDS011;11753;43.144;24.714;2023-07-20T01:55:10;10.55;;;3.45;;
23169;SDS011;11753;43.144;24.714;2023-07-20T01:56:11;8.82;;;3.30;;
23169;SDS011;11753;43.144;24.714;2023-07-20T01:57:12;7.25;;;2.92;;
23169;SDS011;11753;43.144;24.714;2023-07-20T01:58:12;7.40;;;3.03;;
23169;SDS011;11753;43.144;24.714;2023-07-20T01:59:13;7.22;;;2.88;;
23169;SDS011;11753;43.144;24.714;2023-07-20T02:00:14;18.15;;;3.30;;
23169;SDS011;11753;43.144;24.714;2023-07-20T02:01:14;9.48;;;2.97;;
23169;SDS011;11753;43.144;24.714;2023-07-20T02:02:15;5.60;;;2.88;;
23169;SDS011;11753;43.144;24.714;2023-07-20T02:03:15;6.07;;;2.58;;
23169;SDS011;11753;43.144;24.714;2023-07-20T02:04:16;9.15;;;3.00;;
23169;SDS011;11753;43.144;24.714;2023-07-20T02:05:16;6.55;;;2.70;;
23169;SDS011;11753;43.144;24.714;2023-07-20T02:06:17;7.80;;;3.08;;
23169;SDS011;11753;43.144;24.714;2023-07-20T02:07:18;7.68;;;3.33;;
23169;SDS011;11753;43.144;24.714;2023-07-20T02:08:18;5.85;;;3.00;;
23169;SDS011;11753;43.144;24.714;2023-07-20T02:09:19;7.30;;;3.20;;
23169;SDS011;11753;43.144;24.714;2023-07-20T02:10:20;7.57;;;2.70;;
23169;SDS011;11753;43.144;24.714;2023-07-20T02:11:21;9.50;;;3.60;;
23169;SDS011;11753;43.144;24.714;2023-07-20T02:12:22;10.48;;;3.30;;
23169;SDS011;11753;43.144;24.714;2023-07-20T02:13:23;9.18;;;2.80;;
23169;SDS011;11753;43.144;24.714;2023-07-20T02:14:24;10.02;;;2.70;;
23169;SDS011;11753;43.144;24.714;2023-07-20T02:15:24;6.35;;;2.40;;
23169;SDS011;11753;43.144;24.714;2023-07-20T02:16:25;8.35;;;2.65;;
23169;SDS011;11753;43.144;24.714;2023-07-20T02:17:25;6.93;;;2.58;;
23169;SDS011;11753;43.144;24.714;2023-07-20T02:18:27;7.82;;;2.95;;
23169;SDS011;11753;43.144;24.714;2023-07-20T02:19:28;4.70;;;2.15;;
23169;SDS011;11753;43.144;24.714;2023-07-20T02:20:30;9.73;;;2.83;;
23169;SDS011;11753;43.144;24.714;2023-07-20T02:21:30;8.00;;;2.33;;
23169;SDS011;11753;43.144;24.714;2023-07-20T02:22:31;8.32;;;2.35;;
23169;SDS011;11753;43.144;24.714;2023-07-20T02:23:32;7.65;;;2.58;;
23169;SDS011;11753;43.144;24.714;2023-07-20T02:24:33;6.53;;;2.70;;
23169;SDS011;11753;43.144;24.714;2023-07-20T02:25:34;9.20;;;2.80;;
23169;SDS011;11753;43.144;24.714;2023-07-20T02:26:34;6.35;;;2.47;;
23169;SDS011;11753;43.144;24.714;2023-07-20T02:27:35;8.02;;;2.72;;
23169;SDS011;11753;43.144;24.714;2023-07-20T02:28:36;8.20;;;2.95;;
23169;SDS011;11753;43.144;24.714;2023-07-20T02:29:36;9.18;;;2.97;;
23169;SDS011;11753;43.144;24.714;2023-07-20T02:30:37;10.43;;;2.83;;
23169;SDS011;11753;43.144;24.714;2023-07-20T02:31:39;11.10;;;2.83;;
23169;SDS011;11753;43.144;24.714;2023-07-20T02:32:40;7.65;;;2.75;;
23169;SDS011;11753;43.144;24.714;2023-07-20T02:33:41;10.45;;;3.35;;
23169;SDS011;11753;43.144;24.714;2023-07-20T02:34:41;9.20;;;3.03;;
23169;SDS011;11753;43.144;24.714;2023-07-20T02:35:42;9.80;;;2.65;;
23169;SDS011;11753;43.144;24.714;2023-07-20T02:36:43;7.40;;;2.65;;
23169;SDS011;11753;43.144;24.714;2023-07-20T02:37:43;8.95;;;2.58;;
23169;SDS011;11753;43.144;24.714;2023-07-20T02:38:44;7.57;;;3.22;;
23169;SDS011;11753;43.144;24.714;2023-07-20T02:39:46;7.25;;;2.83;;
23169;SDS011;11753;43.144;24.714;2023-07-20T02:40:47;6.00;;;2.72;;
23169;SDS011;11753;43.144;24.714;2023-07-20T02:41:47;8.07;;;2.83;;
23169;SDS011;11753;43.144;24.714;2023-07-20T02:42:48;6.63;;;2.92;;
23169;SDS011;11753;43.144;24.714;2023-07-20T02:43:49;7.28;;;3.13;;
23169;SDS011;11753;43.144;24.714;2023-07-20T02:44:50;9.25;;;2.90;;
23169;SDS011;11753;43.144;24.714;2023-07-20T02:45:53;7.43;;;3.25;;
23169;SDS011;11753;43.144;24.714;2023-07-20T02:46:54;9.60;;;3.00;;
23169;SDS011;11753;43.144;24.714;2023-07-20T02:47:54;11.45;;;3.45;;
23169;SDS011;11753;43.144;24.714;2023-07-20T02:48:55;7.68;;;2.95;;
23169;SDS011;11753;43.144;24.714;2023-07-20T02:49:56;6.50;;;2.95;;
23169;SDS011;11753;43.144;24.714;2023-07-20T02:50:57;6.95;;;2.92;;
23169;SDS011;11753;43.144;24.714;2023-07-20T02:51:58;8.13;;;3.00;;
23169;SDS011;11753;43.144;24.714;2023-07-20T02:52:59;5.55;;;2.63;;
23169;SDS011;11753;43.144;24.714;2023-07-20T02:54:00;9.77;;;3.10;;
23169;SDS011;11753;43.144;24.714;2023-07-20T02:55:01;8.25;;;2.97;;
23169;SDS011;11753;43.144;24.714;2023-07-20T02:56:02;10.73;;;3.15;;
23169;SDS011;11753;43.144;24.714;2023-07-20T02:57:03;7.65;;;3.03;;
23169;SDS011;11753;43.144;24.714;2023-07-20T02:58:04;7.50;;;2.78;;
23169;SDS011;11753;43.144;24.714;2023-07-20T02:59:04;6.90;;;2.92;;
23169;SDS011;11753;43.144;24.714;2023-07-20T03:00:05;6.65;;;2.80;;
23169;SDS011;11753;43.144;24.714;2023-07-20T03:01:07;6.88;;;2.88;;
23169;SDS011;11753;43.144;24.714;2023-07-20T03:02:10;7.35;;;3.50;;
23169;SDS011;11753;43.144;24.714;2023-07-20T03:03:10;10.13;;;3.45;;
23169;SDS011;11753;43.144;24.714;2023-07-20T03:04:11;8.95;;;3.10;;
23169;SDS011;11753;43.144;24.714;2023-07-20T03:05:11;6.22;;;2.95;;
23169;SDS011;11753;43.144;24.714;2023-07-20T03:06:13;7.38;;;2.83;;
23169;SDS011;11753;43.144;24.714;2023-07-20T03:07:14;10.80;;;2.90;;
23169;SDS011;11753;43.144;24.714;2023-07-20T03:08:15;9.50;;;3.03;;
23169;SDS011;11753;43.144;24.714;2023-07-20T03:09:15;9.18;;;3.47;;
23169;SDS011;11753;43.144;24.714;2023-07-20T03:10:16;12.77;;;3.30;;
23169;SDS011;11753;43.144;24.714;2023-07-20T03:11:17;5.38;;;2.60;;
23169;SDS011;11753;43.144;24.714;2023-07-20T03:12:19;6.45;;;2.78;;
23169;SDS011;11753;43.144;24.714;2023-07-20T03:13:20;12.50;;;3.78;;
23169;SDS011;11753;43.144;24.714;2023-07-20T03:14:20;7.63;;;3.38;;
23169;SDS011;11753;43.144;24.714;2023-07-20T03:15:21;8.48;;;3.25;;
23169;SDS011;11753;43.144;24.714;2023-07-20T03:16:23;9.90;;;3.70;;
23169;SDS011;11753;43.144;24.714;2023-07-20T03:17:26;8.85;;;2.97;;
23169;SDS011;11753;43.144;24.714;2023-07-20T03:18:27;9.10;;;2.90;;
23169;SDS011;11753;43.144;24.714;2023-07-20T03:19:27;7.70;;;2.92;;
23169;SDS011;11753;43.144;24.714;2023-07-20T03:20:28;11.15;;;3.50;;
23169;SDS011;11753;43.144;24.714;2023-07-20T03:21:29;10.40;;;3.20;;
23169;SDS011;11753;43.144;24.714;2023-07-20T03:22:29;9.32;;;3.08;;
23169;SDS011;11753;43.144;24.714;2023-07-20T03:23:30;9.63;;;3.83;;
23169;SDS011;11753;43.144;24.714;2023-07-20T03:24:31;8.75;;;3.45;;
23169;SDS011;11753;43.144;24.714;2023-07-20T03:25:33;11.65;;;3.85;;
23169;SDS011;11753;43.144;24.714;2023-07-20T03:26:34;9.40;;;3.20;;
23169;SDS011;11753;43.144;24.714;2023-07-20T03:27:35;6.68;;;3.45;;
23169;SDS011;11753;43.144;24.714;2023-07-20T03:28:36;10.88;;;3.13;;
23169;SDS011;11753;43.144;24.714;2023-07-20T03:29:39;8.60;;;3.30;;
23169;SDS011;11753;43.144;24.714;2023-07-20T03:30:40;9.18;;;3.55;;
23169;SDS011;11753;43.144;24.714;2023-07-20T03:31:41;9.48;;;3.35;;
23169;SDS011;11753;43.144;24.714;2023-07-20T03:32:41;12.18;;;3.45;;
23169;SDS011;11753;43.144;24.714;2023-07-20T03:33:42;13.40;;;3.63;;
23169;SDS011;11753;43.144;24.714;2023-07-20T03:34:43;10.57;;;3.33;;
23169;SDS011;11753;43.144;24.714;2023-07-20T03:35:44;7.25;;;3.30;;
23169;SDS011;11753;43.144;24.714;2023-07-20T03:36:44;9.40;;;3.83;;
23169;SDS011;11753;43.144;24.714;2023-07-20T03:37:45;9.35;;;3.83;;
23169;SDS011;11753;43.144;24.714;2023-07-20T03:38:45;8.95;;;3.63;;
23169;SDS011;11753;43.144;24.714;2023-07-20T03:39:46;5.55;;;3.10;;
23169;SDS011;11753;43.144;24.714;2023-07-20T03:40:50;5.53;;;3.30;;
23169;SDS011;11753;43.144;24.714;2023-07-20T03:41:54;10.82;;;3.53;;
23169;SDS011;11753;43.144;24.714;2023-07-20T03:42:55;8.90;;;3.90;;
23169;SDS011;11753;43.144;24.714;2023-07-20T03:43:55;7.95;;;3.55;;
23169;SDS011;11753;43.144;24.714;2023-07-20T03:44:56;7.28;;;3.20;;
23169;SDS011;11753;43.144;24.714;2023-07-20T03:45:56;6.25;;;3.03;;
23169;SDS011;11753;43.144;24.714;2023-07-20T03:46:57;9.38;;;3.53;;
23169;SDS011;11753;43.144;24.714;2023-07-20T03:47:57;11.20;;;3.15;;
23169;SDS011;11753;43.144;24.714;2023-07-20T03:48:58;9.00;;;3.33;;
23169;SDS011;11753;43.144;24.714;2023-07-20T03:49:59;12.52;;;3.53;;
23169;SDS011;11753;43.144;24.714;2023-07-20T03:50:59;10.43;;;3.33;;
23169;SDS011;11753;43.144;24.714;2023-07-20T03:52:03;9.13;;;4.05;;
23169;SDS011;11753;43.144;24.714;2023-07-20T03:53:04;7.88;;;3.25;;
23169;SDS011;11753;43.144;24.714;2023-07-20T03:54:04;8.30;;;3.22;;
23169;SDS011;11753;43.144;24.714;2023-07-20T03:55:05;7.40;;;3.22;;
23169;SDS011;11753;43.144;24.714;2023-07-20T03:56:06;6.45;;;3.10;;
23169;SDS011;11753;43.144;24.714;2023-07-20T03:57:06;5.75;;;2.92;;
23169;SDS011;11753;43.144;24.714;2023-07-20T03:58:07;10.07;;;3.53;;
23169;SDS011;11753;43.144;24.714;2023-07-20T03:59:08;8.35;;;3.03;;
23169;SDS011;11753;43.144;24.714;2023-07-20T04:00:08;8.30;;;3.97;;
23169;SDS011;11753;43.144;24.714;2023-07-20T04:01:10;6.22;;;3.10;;
23169;SDS011;11753;43.144;24.714;2023-07-20T04:02:10;5.22;;;2.78;;
23169;SDS011;11753;43.144;24.714;2023-07-20T04:03:11;8.93;;;3.55;;
23169;SDS011;11753;43.144;24.714;2023-07-20T04:04:11;7.57;;;3.38;;
23169;SDS011;11753;43.144;24.714;2023-07-20T04:05:14;9.48;;;3.42;;
23169;SDS011;11753;43.144;24.714;2023-07-20T04:06:14;10.27;;;3.65;;
23169;SDS011;11753;43.144;24.714;2023-07-20T04:07:16;5.63;;;2.92;;
23169;SDS011;11753;43.144;24.714;2023-07-20T04:08:17;7.82;;;3.33;;
23169;SDS011;11753;43.144;24.714;2023-07-20T04:09:17;7.53;;;3.30;;
23169;SDS011;11753;43.144;24.714;2023-07-20T04:10:18;8.70;;;3.30;;
23169;SDS011;11753;43.144;24.714;2023-07-20T04:11:19;6.32;;;3.30;;
23169;SDS011;11753;43.144;24.714;2023-07-20T04:12:19;7.95;;;3.35;;
23169;SDS011;11753;43.144;24.714;2023-07-20T04:13:20;10.00;;;3.22;;
23169;SDS011;11753;43.144;24.714;2023-07-20T04:14:20;11.20;;;3.10;;
23169;SDS011;11753;43.144;24.714;2023-07-20T04:15:21;9.20;;;3.50;;
23169;SDS011;11753;43.144;24.714;2023-07-20T04:16:21;7.85;;;3.05;;
23169;SDS011;11753;43.144;24.714;2023-07-20T04:17:22;7.95;;;3.22;;
23169;SDS011;11753;43.144;24.714;2023-07-20T04:18:22;7.50;;;3.22;;
23169;SDS011;11753;43.144;24.714;2023-07-20T04:19:23;7.38;;;2.78;;
23169;SDS011;11753;43.144;24.714;2023-07-20T04:20:23;5.63;;;2.88;;
23169;SDS011;11753;43.144;24.714;2023-07-20T04:21:26;6.82;;;2.85;;
23169;SDS011;11753;43.144;24.714;2023-07-20T04:22:28;5.20;;;2.95;;
23169;SDS011;11753;43.144;24.714;2023-07-20T04:23:29;10.95;;;3.03;;
23169;SDS011;11753;43.144;24.714;2023-07-20T04:24:29;6.47;;;2.72;;
23169;SDS011;11753;43.144;24.714;2023-07-20T04:25:30;10.18;;;3.40;;
23169;SDS011;11753;43.144;24.714;2023-07-20T04:26:38;7.78;;;3.55;;
23169;SDS011;11753;43.144;24.714;2023-07-20T04:27:39;8.07;;;3.13;;
23169;SDS011;11753;43.144;24.714;2023-07-20T04:28:40;5.15;;;2.70;;
23169;SDS011;11753;43.144;24.714;2023-07-20T04:29:42;6.93;;;3.17;;
23169;SDS011;11753;43.144;24.714;2023-07-20T04:30:43;4.97;;;2.53;;
23169;SDS011;11753;43.144;24.714;2023-07-20T04:31:43;7.38;;;3.00;;
23169;SDS011;11753;43.144;24.714;2023-07-20T04:32:43;7.20;;;2.90;;
23169;SDS011;11753;43.144;24.714;2023-07-20T04:33:46;6.47;;;2.55;;
23169;SDS011;11753;43.144;24.714;2023-07-20T04:34:47;7.35;;;2.70;;
23169;SDS011;11753;43.144;24.714;2023-07-20T04:36:55;6.38;;;2.85;;
23169;SDS011;11753;43.144;24.714;2023-07-20T04:37:55;4.40;;;2.63;;
23169;SDS011;11753;43.144;24.714;2023-07-20T04:38:56;7.15;;;2.88;;
23169;SDS011;11753;43.144;24.714;2023-07-20T04:39:56;6.28;;;2.90;;
23169;SDS011;11753;43.144;24.714;2023-07-20T04:40:57;7.30;;;2.75;;
23169;SDS011;11753;43.144;24.714;2023-07-20T04:41:59;6.63;;;3.15;;
23169;SDS011;11753;43.144;24.714;2023-07-20T04:43:00;10.43;;;3.22;;
23169;SDS011;11753;43.144;24.714;2023-07-20T04:44:00;7.93;;;3.35;;
23169;SDS011;11753;43.144;24.714;2023-07-20T04:45:01;6.80;;;3.20;;
23169;SDS011;11753;43.144;24.714;2023-07-20T04:46:02;6.13;;;2.95;;
23169;SDS011;11753;43.144;24.714;2023-07-20T04:47:02;8.57;;;3.35;;
23169;SDS011;11753;43.144;24.714;2023-07-20T04:48:04;6.35;;;2.60;;
23169;SDS011;11753;43.144;24.714;2023-07-20T04:49:15;11.07;;;3.40;;
23169;SDS011;11753;43.144;24.714;2023-07-20T04:50:16;8.45;;;2.88;;
23169;SDS011;11753;43.144;24.714;2023-07-20T04:51:16;5.72;;;3.00;;
23169;SDS011;11753;43.144;24.714;2023-07-20T04:52:20;9.07;;;4.03;;
23169;SDS011;11753;43.144;24.714;2023-07-20T04:53:21;8.02;;;2.95;;
23169;SDS011;11753;43.144;24.714;2023-07-20T04:54:22;7.05;;;3.30;;
23169;SDS011;11753;43.144;24.714;2023-07-20T04:55:22;9.80;;;3.50;;
23169;SDS011;11753;43.144;24.714;2023-07-20T04:56:23;5.22;;;2.72;;
23169;SDS011;11753;43.144;24.714;2023-07-20T04:57:24;6.63;;;2.58;;
23169;SDS011;11753;43.144;24.714;2023-07-20T04:58:25;9.90;;;3.20;;
23169;SDS011;11753;43.144;24.714;2023-07-20T04:59:25;9.50;;;3.00;;
23169;SDS011;11753;43.144;24.714;2023-07-20T05:00:26;5.68;;;2.97;;
23169;SDS011;11753;43.144;24.714;2023-07-20T05:01:26;7.03;;;3.17;;
23169;SDS011;11753;43.144;24.714;2023-07-20T05:02:27;9.40;;;2.92;;
23169;SDS011;11753;43.144;24.714;2023-07-20T05:03:27;7.68;;;3.17;;
23169;SDS011;11753;43.144;24.714;2023-07-20T05:04:28;5.85;;;2.80;;
23169;SDS011;11753;43.144;24.714;2023-07-20T05:05:28;6.68;;;2.65;;
23169;SDS011;11753;43.144;24.714;2023-07-20T05:06:29;6.72;;;2.40;;
23169;SDS011;11753;43.144;24.714;2023-07-20T05:07:29;7.35;;;3.22;;
23169;SDS011;11753;43.144;24.714;2023-07-20T05:08:30;8.10;;;2.60;;
23169;SDS011;11753;43.144;24.714;2023-07-20T05:09:30;9.70;;;2.90;;
23169;SDS011;11753;43.144;24.714;2023-07-20T05:10:31;6.00;;;3.03;;
23169;SDS011;11753;43.144;24.714;2023-07-20T05:11:32;5.78;;;2.80;;
23169;SDS011;11753;43.144;24.714;2023-07-20T05:12:32;7.05;;;2.65;;
23169;SDS011;11753;43.144;24.714;2023-07-20T05:13:33;9.25;;;2.80;;
23169;SDS011;11753;43.144;24.714;2023-07-20T05:14:34;9.68;;;3.28;;
23169;SDS011;11753;43.144;24.714;2023-07-20T05:15:34;6.65;;;3.30;;
23169;SDS011;11753;43.144;24.714;2023-07-20T05:16:35;6.18;;;2.95;;
23169;SDS011;11753;43.144;24.714;2023-07-20T05:17:35;6.60;;;2.72;;
23169;SDS011;11753;43.144;24.714;2023-07-20T05:18:36;7.38;;;2.40;;
23169;SDS011;11753;43.144;24.714;2023-07-20T05:19:36;9.50;;;3.50;;
23169;SDS011;11753;43.144;24.714;2023-07-20T05:20:37;8.32;;;3.10;;
23169;SDS011;11753;43.144;24.714;2023-07-20T05:21:37;7.38;;;2.90;;
23169;SDS011;11753;43.144;24.714;2023-07-20T05:22:38;9.95;;;2.80;;
23169;SDS011;11753;43.144;24.714;2023-07-20T05:23:39;7.22;;;3.13;;
23169;SDS011;11753;43.144;24.714;2023-07-20T05:24:40;5.70;;;3.15;;
23169;SDS011;11753;43.144;24.714;2023-07-20T05:25:40;6.78;;;2.83;;
23169;SDS011;11753;43.144;24.714;2023-07-20T05:26:41;6.80;;;2.63;;
23169;SDS011;11753;43.144;24.714;2023-07-20T05:27:41;8.88;;;2.92;;
23169;SDS011;11753;43.144;24.714;2023-07-20T05:28:42;7.25;;;2.83;;
23169;SDS011;11753;43.144;24.714;2023-07-20T05:29:43;5.53;;;2.70;;
23169;SDS011;11753;43.144;24.714;2023-07-20T05:30:44;7.65;;;3.05;;
23169;SDS011;11753;43.144;24.714;2023-07-20T05:31:45;7.00;;;2.97;;
23169;SDS011;11753;43.144;24.714;2023-07-20T05:32:45;7.25;;;3.00;;
23169;SDS011;11753;43.144;24.714;2023-07-20T05:33:50;6.90;;;3.03;;
23169;SDS011;11753;43.144;24.714;2023-07-20T05:34:52;5.85;;;2.78;;
23169;SDS011;11753;43.144;24.714;2023-07-20T05:35:54;10.05;;;2.60;;
23169;SDS011;11753;43.144;24.714;2023-07-20T05:36:54;6.18;;;2.58;;
23169;SDS011;11753;43.144;24.714;2023-07-20T05:37:55;6.35;;;2.83;;
23169;SDS011;11753;43.144;24.714;2023-07-20T05:38:56;7.68;;;2.80;;
23169;SDS011;11753;43.144;24.714;2023-07-20T05:39:57;6.20;;;2.83;;
23169;SDS011;11753;43.144;24.714;2023-07-20T05:40:59;6.30;;;2.33;;
23169;SDS011;11753;43.144;24.714;2023-07-20T05:42:08;5.15;;;2.28;;
23169;SDS011;11753;43.144;24.714;2023-07-20T05:43:12;8.32;;;2.55;;
23169;SDS011;11753;43.144;24.714;2023-07-20T05:44:12;8.13;;;2.75;;
23169;SDS011;11753;43.144;24.714;2023-07-20T05:45:13;5.30;;;2.50;;
23169;SDS011;11753;43.144;24.714;2023-07-20T05:46:14;6.80;;;2.35;;
23169;SDS011;11753;43.144;24.714;2023-07-20T05:47:15;4.95;;;2.60;;
23169;SDS011;11753;43.144;24.714;2023-07-20T05:48:15;6.70;;;3.17;;
23169;SDS011;11753;43.144;24.714;2023-07-20T05:49:16;6.63;;;2.50;;
23169;SDS011;11753;43.144;24.714;2023-07-20T05:50:17;7.45;;;2.70;;
23169;SDS011;11753;43.144;24.714;2023-07-20T05:51:18;4.90;;;2.45;;
23169;SDS011;11753;43.144;24.714;2023-07-20T05:52:19;7.63;;;2.40;;
23169;SDS011;11753;43.144;24.714;2023-07-20T05:53:19;6.75;;;3.15;;
23169;SDS011;11753;43.144;24.714;2023-07-20T05:54:20;7.97;;;2.88;;
23169;SDS011;11753;43.144;24.714;2023-07-20T05:55:20;5.45;;;2.58;;
23169;SDS011;11753;43.144;24.714;2023-07-20T05:56:21;8.65;;;2.50;;
23169;SDS011;11753;43.144;24.714;2023-07-20T05:57:21;5.18;;;2.20;;
23169;SDS011;11753;43.144;24.714;2023-07-20T05:58:22;7.10;;;2.22;;
23169;SDS011;11753;43.144;24.714;2023-07-20T05:59:24;4.97;;;2.47;;
23169;SDS011;11753;43.144;24.714;2023-07-20T06:00:24;4.95;;;2.50;;
23169;SDS011;11753;43.144;24.714;2023-07-20T06:01:26;5.22;;;2.08;;
23169;SDS011;11753;43.144;24.714;2023-07-20T06:02:28;5.25;;;2.63;;
23169;SDS011;11753;43.144;24.714;2023-07-20T06:03:28;7.68;;;2.75;;
23169;SDS011;11753;43.144;24.714;2023-07-20T06:04:29;8.00;;;2.47;;
23169;SDS011;11753;43.144;24.714;2023-07-20T06:05:30;6.20;;;2.42;;
23169;SDS011;11753;43.144;24.714;2023-07-20T06:06:30;10.50;;;2.90;;
23169;SDS011;11753;43.144;24.714;2023-07-20T06:07:31;7.30;;;2.38;;
23169;SDS011;11753;43.144;24.714;2023-07-20T06:08:31;10.57;;;3.30;;
23169;SDS011;11753;43.144;24.714;2023-07-20T06:09:32;6.00;;;2.45;;
23169;SDS011;11753;43.144;24.714;2023-07-20T06:10:33;6.93;;;2.60;;
23169;SDS011;11753;43.144;24.714;2023-07-20T06:11:33;10.23;;;2.75;;
23169;SDS011;11753;43.144;24.714;2023-07-20T06:12:34;7.35;;;2.65;;
23169;SDS011;11753;43.144;24.714;2023-07-20T06:13:35;8.93;;;2.60;;
23169;SDS011;11753;43.144;24.714;2023-07-20T06:14:35;5.85;;;2.28;;
23169;SDS011;11753;43.144;24.714;2023-07-20T06:15:36;6.10;;;2.53;;
23169;SDS011;11753;43.144;24.714;2023-07-20T06:16:36;8.65;;;3.03;;
23169;SDS011;11753;43.144;24.714;2023-07-20T06:17:37;5.78;;;2.80;;